Time;durP1;ratioP1;P1;durP2;ratioP2;P2;SDS_P1;SDS_P2;PMS_P1;PMS_P2;Temp;Humidity;BMP_temperature;BMP_pressure;BME280_temperature;BME280_humidity;BME280_pressure;Samples;Min_cycle;Max_cycle;Signal;HPM_P1;HPM_P2
2021/03/14 00:00:38;;;;;;;2.45;1.30;;;;;;;3.15;87.61;95769.06;5002563;28;20042;-62
2021/03/14 00:03:05;;;;;;;2.40;0.70;;;;;;;3.05;87.10;95766.84;5002476;28;20049;-63
2021/03/14 00:05:31;;;;;;;2.08;0.75;;;;;;;2.84;88.53;95759.63;5006930;28;20044;-62
2021/03/14 00:07:57;;;;;;;0.55;0.55;;;;;;;2.87;88.32;95760.88;5006145;28;20049;-61
2021/03/14 00:10:23;;;;;;;1.02;0.70;;;;;;;2.76;89.92;95757.06;4999362;28;20594;-62
2021/03/14 00:12:49;;;;;;;2.00;0.85;;;;;;;2.66;90.38;95759.06;4989546;28;20056;-64
2021/03/14 00:15:14;;;;;;;1.65;0.60;;;;;;;2.46;90.54;95749.16;4978565;28;20048;-63
2021/03/14 00:17:40;;;;;;;3.95;0.75;;;;;;;2.56;91.27;95756.06;4984169;28;20435;-62
2021/03/14 00:20:07;;;;;;;0.70;0.70;;;;;;;2.60;90.79;95760.44;4985536;28;20519;-63
2021/03/14 00:22:33;;;;;;;0.73;0.70;;;;;;;2.61;91.29;95761.22;5000944;28;20077;-62
2021/03/14 00:24:58;;;;;;;0.50;0.50;;;;;;;2.56;91.59;95766.88;5002529;28;20077;-63
2021/03/14 00:27:24;;;;;;;0.60;0.60;;;;;;;2.56;92.12;95772.28;4988823;28;20112;-63
2021/03/14 00:29:49;;;;;;;0.77;0.70;;;;;;;2.54;91.59;95774.50;4993012;28;20207;-61
2021/03/14 00:32:15;;;;;;;1.55;0.70;;;;;;;2.53;91.60;95773.72;4993426;28;20046;-63
2021/03/14 00:34:40;;;;;;;0.80;0.63;;;;;;;2.64;90.47;95765.94;4992417;28;20058;-64
2021/03/14 00:37:07;;;;;;;1.85;0.55;;;;;;;2.64;90.68;95779.47;4986475;28;20042;-64
2021/03/14 00:39:33;;;;;;;0.60;0.60;;;;;;;2.31;91.57;95782.25;4983106;28;20169;-62
2021/03/14 00:41:58;;;;;;;0.60;0.60;;;;;;;2.21;91.88;95797.75;4982400;28;20487;-61
2021/03/14 00:44:23;;;;;;;0.50;0.50;;;;;;;2.03;91.38;95786.34;4980890;28;20483;-64
2021/03/14 00:46:49;;;;;;;0.75;0.75;;;;;;;1.83;91.71;95795.28;4985544;28;20052;-61
2021/03/14 00:49:23;;;;;;;0.60;0.60;;;;;;;1.85;92.40;95812.72;4970736;28;20039;-63
2021/03/14 00:51:49;;;;;;;0.60;0.60;;;;;;;1.85;92.18;95803.84;4983004;28;20113;-64
2021/03/14 00:54:14;;;;;;;2.35;0.68;;;;;;;1.86;92.08;95798.13;4977769;28;20034;-64
2021/03/14 00:56:40;;;;;;;0.90;0.90;;;;;;;1.90;92.33;95793.63;4981517;28;20058;-63
2021/03/14 00:59:06;;;;;;;0.57;0.57;;;;;;;1.86;92.73;95789.25;4976824;28;20042;-61
2021/03/14 01:01:31;;;;;;;0.80;0.80;;;;;;;1.88;92.16;95778.88;4978917;28;20064;-61
2021/03/14 01:03:57;;;;;;;1.00;0.88;;;;;;;1.99;92.02;95761.13;4961743;28;20652;-63
2021/03/14 01:06:22;;;;;;;0.80;0.80;;;;;;;2.07;91.77;95779.19;4964900;28;20325;-61
2021/03/14 01:08:51;;;;;;;0.80;0.80;;;;;;;2.23;90.89;95787.44;4982599;28;20077;-62
2021/03/14 01:11:16;;;;;;;1.17;0.80;;;;;;;2.36;91.02;95784.72;4977417;28;20129;-61
2021/03/14 01:13:42;;;;;;;0.60;0.60;;;;;;;2.33;89.75;95788.13;4980410;28;20630;-61
2021/03/14 01:16:08;;;;;;;1.15;0.68;;;;;;;2.30;90.34;95808.47;4976902;28;20042;-62
2021/03/14 01:18:33;;;;;;;0.88;0.80;;;;;;;2.24;90.34;95801.72;4982662;28;20039;-61
2021/03/14 01:20:58;;;;;;;1.60;0.70;;;;;;;2.32;90.77;95805.44;4983662;28;20043;-62
2021/03/14 01:23:24;;;;;;;0.60;0.60;;;;;;;2.34;89.33;95797.78;4979689;28;20495;-60
2021/03/14 01:25:49;;;;;;;0.68;0.68;;;;;;;2.31;90.13;95815.47;4982674;28;20038;-62
2021/03/14 01:28:15;;;;;;;0.82;0.82;;;;;;;2.35;90.26;95816.38;4975809;28;20057;-62
2021/03/14 01:30:41;;;;;;;0.70;0.70;;;;;;;2.24;90.08;95807.91;4986950;28;20050;-60
2021/03/14 01:33:07;;;;;;;0.60;0.60;;;;;;;2.22;89.52;95810.16;4991409;28;20356;-61
2021/03/14 01:35:32;;;;;;;0.70;0.70;;;;;;;2.20;90.38;95809.72;4994137;28;20049;-61
2021/03/14 01:37:57;;;;;;;1.40;0.80;;;;;;;2.33;90.25;95807.81;4957816;28;20049;-62
2021/03/14 01:40:23;;;;;;;0.70;0.70;;;;;;;2.30;90.41;95824.69;4940267;28;20780;-61
2021/03/14 01:42:49;;;;;;;0.60;0.60;;;;;;;2.32;90.79;95810.84;4944727;28;20452;-61
2021/03/14 01:45:16;;;;;;;0.60;0.60;;;;;;;2.17;91.51;95821.16;4941552;28;20051;-62
2021/03/14 01:47:46;;;;;;;0.70;0.70;;;;;;;2.28;90.51;95805.31;4965145;28;20049;-62
2021/03/14 01:50:19;;;;;;;0.70;0.70;;;;;;;2.34;89.97;95804.00;4941771;28;20053;-61
2021/03/14 01:52:46;;;;;;;0.70;0.70;;;;;;;2.24;91.03;95804.44;4981893;28;20046;-62
2021/03/14 01:55:13;;;;;;;0.75;0.75;;;;;;;2.17;91.08;95796.84;4975938;28;20083;-61
2021/03/14 01:57:39;;;;;;;0.68;0.68;;;;;;;2.11;91.14;95795.50;4983870;28;20492;-62
2021/03/14 02:00:10;;;;;;;0.82;0.70;;;;;;;2.15;90.34;95812.63;4978463;28;20034;-61
2021/03/14 02:02:36;;;;;;;1.20;0.70;;;;;;;2.15;90.76;95812.63;4965828;28;20038;-62
2021/03/14 02:05:04;;;;;;;1.17;0.93;;;;;;;2.07;91.00;95808.88;4982150;28;20112;-61
2021/03/14 02:07:31;;;;;;;0.70;0.70;;;;;;;2.15;91.37;95815.31;4980737;28;20038;-59
2021/03/14 02:09:56;;;;;;;0.70;0.70;;;;;;;2.10;90.21;95820.94;4979178;28;20042;-60
2021/03/14 02:12:25;;;;;;;1.58;0.75;;;;;;;2.01;90.75;95820.22;4974345;28;20650;-62
2021/03/14 02:14:56;;;;;;;1.10;0.82;;;;;;;2.02;90.89;95811.00;4979357;28;20042;-61
2021/03/14 02:17:26;;;;;;;0.75;0.75;;;;;;;2.10;90.93;95816.31;4959474;28;20041;-61
2021/03/14 02:19:57;;;;;;;;;;;;;;;2.09;90.54;95816.66;4981117;28;20038;-62
2021/03/14 02:22:24;;;;;;;2.95;0.90;;;;;;;2.07;91.14;95826.97;4976528;28;20003;-61
2021/03/14 02:24:57;;;;;;;2.35;0.90;;;;;;;2.19;90.56;95837.84;4981044;28;20050;-62
2021/03/14 02:27:23;;;;;;;0.70;0.70;;;;;;;2.19;89.75;95843.25;4975614;28;20637;-59
2021/03/14 02:29:49;;;;;;;0.60;0.60;;;;;;;2.37;90.40;95838.44;4981676;28;20372;-61
2021/03/14 02:32:17;;;;;;;0.70;0.70;;;;;;;2.43;89.36;95834.41;4975900;28;20400;-58
2021/03/14 02:34:46;;;;;;;0.70;0.70;;;;;;;2.33;89.33;95852.97;4978538;28;20722;-62
2021/03/14 02:37:13;;;;;;;0.90;0.85;;;;;;;2.37;89.22;95851.97;4972945;28;20138;-61
2021/03/14 02:39:40;;;;;;;0.77;0.77;;;;;;;2.43;89.52;95847.94;4980510;28;20065;-61
2021/03/14 02:42:09;;;;;;;1.10;1.00;;;;;;;2.45;88.82;95858.41;4975669;28;20042;-61
2021/03/14 02:44:42;;;;;;;0.95;0.75;;;;;;;2.34;88.75;95862.66;4981121;28;20051;-59
2021/03/14 02:47:08;;;;;;;1.48;0.90;;;;;;;2.25;89.20;95876.22;4974777;28;20462;-62
2021/03/14 02:49:35;;;;;;;1.45;1.00;;;;;;;2.42;88.96;95875.28;4962461;28;20137;-61
2021/03/14 02:52:04;;;;;;;3.90;0.77;;;;;;;2.26;87.77;95869.72;4996230;28;20422;-60
2021/03/14 02:54:30;;;;;;;0.65;0.65;;;;;;;2.37;88.11;95881.69;4998457;28;20045;-60
2021/03/14 02:56:57;;;;;;;2.70;0.98;;;;;;;2.28;87.34;95889.88;5000096;28;20264;-61
2021/03/14 02:59:23;;;;;;;1.48;0.82;;;;;;;2.22;87.52;95891.22;4995137;28;20697;-61
2021/03/14 03:01:50;;;;;;;1.10;0.70;;;;;;;2.20;87.94;95892.69;4998545;28;20149;-61
2021/03/14 03:04:23;;;;;;;1.00;0.85;;;;;;;2.28;88.03;95895.28;4994164;28;20543;-62
2021/03/14 03:06:50;;;;;;;2.60;1.15;;;;;;;2.26;86.97;95891.34;4996814;28;20069;-61
2021/03/14 03:09:17;;;;;;;2.25;0.98;;;;;;;2.25;87.93;95892.44;4992087;28;20042;-60
2021/03/14 03:11:44;;;;;;;2.85;1.10;;;;;;;2.34;87.34;95887.78;4999843;28;20092;-60
2021/03/14 03:14:14;;;;;;;2.97;1.00;;;;;;;2.31;87.78;95888.44;4993937;28;20399;-61
2021/03/14 03:16:41;;;;;;;2.88;0.80;;;;;;;2.23;87.77;95911.72;4999832;28;20046;-61
2021/03/14 03:19:11;;;;;;;2.17;0.77;;;;;;;2.29;87.72;95910.38;4987585;28;20038;-61
2021/03/14 03:21:37;;;;;;;1.40;0.95;;;;;;;2.36;87.51;95917.16;4980323;28;20525;-60
2021/03/14 03:24:05;;;;;;;1.85;0.70;;;;;;;2.28;87.20;95924.22;4995977;28;20042;-63
2021/03/14 03:26:30;;;;;;;4.75;1.00;;;;;;;2.36;86.82;95927.97;4998397;28;20113;-60
2021/03/14 03:28:55;;;;;;;2.58;0.98;;;;;;;2.36;86.12;95922.56;4994826;28;20538;-61
2021/03/14 03:31:21;;;;;;;3.00;1.38;;;;;;;2.29;86.85;95934.69;4977998;28;20050;-62
2021/03/14 03:33:46;;;;;;;3.10;1.00;;;;;;;2.31;87.19;95942.47;4993385;28;20096;-62
2021/03/14 03:36:12;;;;;;;0.90;0.90;;;;;;;2.42;86.33;95943.63;4986648;28;20475;-59
2021/03/14 03:38:37;;;;;;;1.92;0.95;;;;;;;2.42;86.71;95956.38;4968446;28;20046;-59
2021/03/14 03:41:03;;;;;;;1.10;0.77;;;;;;;2.46;86.61;95949.19;4959870;28;20130;-61
2021/03/14 03:43:37;;;;;;;1.10;0.95;;;;;;;2.45;86.72;95953.00;4942529;28;20054;-62
2021/03/14 03:46:05;;;;;;;1.75;0.80;;;;;;;2.35;86.91;95942.59;4960135;28;20129;-61
2021/03/14 03:48:47;;;;;;;1.48;0.63;;;;;;;2.44;84.92;95948.72;4963134;28;20046;-61
2021/03/14 03:51:27;;;;;;;1.02;0.98;;;;;;;2.46;85.25;95960.75;4976469;28;20046;-62
2021/03/14 03:53:56;;;;;;;0.88;0.88;;;;;;;2.56;85.34;95965.00;4993974;28;20053;-61
2021/03/14 03:56:23;;;;;;;1.85;0.63;;;;;;;2.59;85.79;95967.03;4986581;28;20137;-60
2021/03/14 03:58:48;;;;;;;2.58;1.00;;;;;;;2.49;85.28;95976.31;5001364;28;20038;-62
2021/03/14 04:01:15;;;;;;;1.00;0.80;;;;;;;2.47;85.70;95975.88;4998514;28;20045;-60
2021/03/14 04:03:43;;;;;;;1.10;0.73;;;;;;;2.38;85.64;95987.91;5004446;28;20038;-62
2021/03/14 04:06:10;;;;;;;0.65;0.65;;;;;;;2.32;85.24;95994.59;4988153;28;20042;-61
2021/03/14 04:08:37;;;;;;;1.00;1.00;;;;;;;2.41;85.96;96008.84;4991908;28;20038;-62
2021/03/14 04:11:08;;;;;;;2.53;0.77;;;;;;;2.33;85.18;96007.78;4996819;28;20046;-60
2021/03/14 04:13:35;;;;;;;1.42;0.80;;;;;;;2.29;85.62;96031.19;4994801;28;20575;-62
2021/03/14 04:16:03;;;;;;;3.70;0.80;;;;;;;2.38;85.39;96025.72;4998948;28;20030;-61
2021/03/14 04:18:30;;;;;;;1.73;0.90;;;;;;;2.27;85.33;96036.94;5009765;28;20080;-60
2021/03/14 04:20:58;;;;;;;0.88;0.75;;;;;;;2.25;85.10;96030.25;4994579;28;20042;-59
2021/03/14 04:23:25;;;;;;;1.20;1.13;;;;;;;2.23;84.81;96032.50;4992829;28;20220;-59
2021/03/14 04:25:54;;;;;;;0.65;0.65;;;;;;;2.23;84.83;96054.91;5003560;28;20058;-60
2021/03/14 04:28:22;;;;;;;0.88;0.80;;;;;;;2.25;83.29;96041.06;4989373;28;20052;-61
2021/03/14 04:30:48;;;;;;;3.22;0.90;;;;;;;2.12;83.51;96052.91;5001908;28;20132;-60
2021/03/14 04:33:17;;;;;;;2.20;0.90;;;;;;;2.10;83.07;96070.22;4980247;28;20088;-60
2021/03/14 04:35:44;;;;;;;0.70;0.70;;;;;;;2.02;83.61;96078.41;4995303;28;20487;-60
2021/03/14 04:38:09;;;;;;;1.85;1.08;;;;;;;2.05;82.63;96075.03;4990223;28;20034;-61
2021/03/14 04:40:35;;;;;;;1.08;0.80;;;;;;;1.94;83.24;96074.63;4993218;28;20049;-58
2021/03/14 04:43:03;;;;;;;3.08;0.75;;;;;;;1.87;83.05;96077.03;4991377;28;20042;-60
2021/03/14 04:45:29;;;;;;;1.42;0.80;;;;;;;1.83;83.38;96093.09;4963958;28;20052;-61
2021/03/14 04:47:54;;;;;;;1.95;0.77;;;;;;;1.76;82.90;96079.31;4983597;28;20759;-61
2021/03/14 04:50:23;;;;;;;2.65;0.95;;;;;;;1.78;83.26;96106.00;4980123;28;20062;-60
2021/03/14 04:52:55;;;;;;;2.60;1.23;;;;;;;1.65;82.76;96113.19;4982259;28;20133;-61
2021/03/14 04:55:21;;;;;;;1.35;1.00;;;;;;;1.69;83.81;96106.84;4982931;28;20041;-59
2021/03/14 04:57:48;;;;;;;2.70;1.08;;;;;;;1.59;82.93;96128.00;4991647;28;20050;-61
2021/03/14 05:00:17;;;;;;;1.27;0.90;;;;;;;1.52;83.01;96125.78;4997262;28;20048;-60
2021/03/14 05:02:44;;;;;;;2.07;1.10;;;;;;;1.57;83.21;96133.72;5002773;28;20081;-61
2021/03/14 05:05:12;;;;;;;2.67;1.35;;;;;;;1.59;82.64;96134.16;4994422;28;20038;-61
2021/03/14 05:07:40;;;;;;;2.10;0.82;;;;;;;1.57;81.64;96116.69;4985403;28;20073;-59
2021/03/14 05:10:07;;;;;;;0.93;0.82;;;;;;;1.51;82.31;96145.78;4987062;28;20486;-58
2021/03/14 05:12:34;;;;;;;0.80;0.80;;;;;;;1.51;82.19;96149.28;4986322;28;20042;-61
2021/03/14 05:15:00;;;;;;;2.35;1.00;;;;;;;1.58;81.15;96146.06;4984764;28;20057;-60
2021/03/14 05:17:25;;;;;;;2.15;1.05;;;;;;;1.57;80.94;96117.50;4979868;28;20038;-60
2021/03/14 05:19:51;;;;;;;1.95;1.00;;;;;;;1.57;81.59;96138.28;4983144;28;20522;-59
2021/03/14 05:22:20;;;;;;;3.22;1.10;;;;;;;1.62;81.23;96117.34;4989933;28;20069;-60
2021/03/14 05:24:48;;;;;;;4.82;1.65;;;;;;;1.53;81.35;96125.47;4986379;28;20181;-60
2021/03/14 05:27:13;;;;;;;1.42;0.80;;;;;;;1.52;80.98;96142.75;4986421;28;20064;-61
2021/03/14 05:29:39;;;;;;;1.23;1.00;;;;;;;1.57;82.04;96152.59;5001859;28;20505;-60
2021/03/14 05:32:05;;;;;;;1.02;0.93;;;;;;;1.48;81.41;96163.41;4996553;28;20453;-58
2021/03/14 05:34:31;;;;;;;3.67;1.10;;;;;;;1.65;81.44;96140.97;4999927;28;20052;-60
2021/03/14 05:36:56;;;;;;;2.25;0.90;;;;;;;1.53;81.44;96141.66;5001778;28;20049;-61
2021/03/14 05:39:21;;;;;;;2.88;1.10;;;;;;;1.61;80.73;96141.94;4989082;28;20644;-59
2021/03/14 05:41:47;;;;;;;5.00;1.00;;;;;;;1.58;80.77;96169.56;4993709;28;20133;-59
2021/03/14 05:44:13;;;;;;;7.95;1.30;;;;;;;1.55;81.41;96148.63;4996075;28;20486;-61
2021/03/14 05:46:39;;;;;;;1.20;1.10;;;;;;;1.66;80.23;96163.38;4983953;28;20049;-62
2021/03/14 05:49:06;;;;;;;3.72;1.30;;;;;;;1.68;81.09;96183.53;4996018;28;20037;-61
2021/03/14 05:51:35;;;;;;;3.50;1.08;;;;;;;1.67;80.87;96179.22;5000294;28;20137;-60
2021/03/14 05:54:02;;;;;;;1.08;0.98;;;;;;;1.75;79.85;96187.63;4992865;28;20064;-61
2021/03/14 05:56:28;;;;;;;2.35;0.85;;;;;;;1.74;80.47;96186.84;4988427;28;20555;-62
2021/03/14 05:58:55;;;;;;;4.53;1.30;;;;;;;1.75;79.95;96193.84;5001956;28;20045;-61
2021/03/14 06:01:28;;;;;;;2.70;1.10;;;;;;;1.71;80.46;96207.19;4990026;28;20428;-58
2021/03/14 06:03:55;;;;;;;2.28;0.77;;;;;;;1.77;79.85;96193.53;4992907;28;20030;-56
2021/03/14 06:06:21;;;;;;;1.30;1.02;;;;;;;1.84;79.28;96226.22;4994199;28;20038;-59
2021/03/14 06:08:47;;;;;;;1.45;0.90;;;;;;;1.90;79.55;96220.31;4974439;28;20054;-60
2021/03/14 06:11:12;;;;;;;2.83;1.05;;;;;;;2.01;80.08;96214.56;4987316;28;20037;-59
2021/03/14 06:13:38;;;;;;;5.10;1.13;;;;;;;2.03;79.23;96233.94;5001148;28;20410;-60
2021/03/14 06:16:04;;;;;;;1.83;1.30;;;;;;;2.14;79.62;96232.47;4991140;28;20092;-62
2021/03/14 06:18:30;;;;;;;2.83;0.80;;;;;;;2.12;78.53;96242.03;4991198;28;20439;-58
2021/03/14 06:20:55;;;;;;;1.55;1.00;;;;;;;2.18;79.23;96240.72;4998705;28;20042;-58
2021/03/14 06:23:22;;;;;;;5.30;0.90;;;;;;;2.14;79.21;96242.50;4995459;28;20543;-60
2021/03/14 06:25:51;;;;;;;2.10;1.08;;;;;;;2.07;78.66;96238.41;5000594;28;20048;-58
2021/03/14 06:28:31;;;;;;;3.15;1.67;;;;;;;2.30;77.53;96235.44;4995576;28;20045;-58
2021/03/14 06:30:56;;;;;;;;;;;;;;;2.35;77.31;96246.06;4997431;28;20038;-60
2021/03/14 06:33:26;;;;;;;3.17;1.10;;;;;;;2.24;77.46;96239.44;4969298;28;20287;-60
2021/03/14 06:35:55;;;;;;;2.55;1.20;;;;;;;2.19;76.46;96250.44;5000277;28;20081;-58
2021/03/14 06:38:20;;;;;;;3.58;1.13;;;;;;;2.17;77.85;96264.25;4982075;28;20101;-60
2021/03/14 06:40:47;;;;;;;5.63;1.23;;;;;;;2.13;77.48;96249.03;4983110;28;20065;-58
2021/03/14 06:43:16;;;;;;;2.95;1.05;;;;;;;2.10;77.69;96267.44;4974651;28;20042;-58
2021/03/14 06:45:43;;;;;;;1.60;1.10;;;;;;;2.11;77.42;96273.66;4980548;28;20041;-59
2021/03/14 06:48:08;;;;;;;4.63;1.15;;;;;;;2.02;78.15;96267.50;4982363;28;20034;-59
2021/03/14 06:50:42;;;;;;;1.88;0.98;;;;;;;1.96;78.67;96266.06;4980112;28;20105;-61
2021/03/14 06:53:15;;;;;;;2.45;0.75;;;;;;;2.07;78.90;96289.72;4976201;28;20092;-59
2021/03/14 06:55:42;;;;;;;4.70;1.05;;;;;;;2.02;78.48;96289.88;4989918;28;20079;-59
2021/03/14 06:58:25;;;;;;;6.88;1.67;;;;;;;1.81;79.43;96270.06;4970521;28;20118;-60
2021/03/14 07:01:14;;;;;;;2.70;1.10;;;;;;;1.87;80.13;96290.38;5006764;28;20118;-60
2021/03/14 07:03:50;;;;;;;2.83;0.93;;;;;;;1.91;80.99;96305.63;5008802;28;20041;-61
2021/03/14 07:06:27;;;;;;;2.60;1.20;;;;;;;1.90;81.01;96287.84;4987822;28;20034;-60
2021/03/14 07:09:08;;;;;;;2.20;1.10;;;;;;;1.92;81.92;96306.41;4992202;28;20068;-59
2021/03/14 07:11:38;;;;;;;1.52;1.30;;;;;;;1.82;82.89;96318.34;4999707;28;20399;-59
2021/03/14 07:14:10;;;;;;;2.33;1.35;;;;;;;1.83;83.34;96313.75;4997268;28;20070;-61
2021/03/14 07:16:58;;;;;;;6.18;1.90;;;;;;;1.86;84.24;96326.63;5000240;28;20038;-60
2021/03/14 07:19:31;;;;;;;2.80;1.23;;;;;;;2.03;82.76;96325.78;4995384;28;20938;-60
2021/03/14 07:22:10;;;;;;;3.15;1.15;;;;;;;1.72;83.59;96315.97;4993016;28;20053;-60
2021/03/14 07:24:41;;;;;;;1.55;1.30;;;;;;;1.87;83.01;96330.88;4982386;28;20034;-58
2021/03/14 07:27:29;;;;;;;2.35;1.10;;;;;;;1.68;83.08;96336.63;4998818;28;20046;-59
2021/03/14 07:29:56;;;;;;;2.97;1.17;;;;;;;1.71;83.43;96326.00;4990994;28;20046;-59
2021/03/14 07:32:22;;;;;;;3.45;1.10;;;;;;;1.69;83.25;96340.91;4992788;28;20038;-58
2021/03/14 07:34:47;;;;;;;1.33;1.00;;;;;;;1.66;83.79;96339.66;5003468;28;20104;-60
2021/03/14 07:37:13;;;;;;;1.55;1.00;;;;;;;1.59;84.20;96346.63;4999136;28;20132;-59
2021/03/14 07:39:39;;;;;;;5.57;1.00;;;;;;;2.33;82.43;96340.19;5003264;28;20432;-60
2021/03/14 07:42:06;;;;;;;1.10;0.82;;;;;;;3.10;79.82;96342.94;4998870;28;20042;-61
2021/03/14 07:44:32;;;;;;;4.35;1.20;;;;;;;3.17;78.59;96342.41;4996260;28;20061;-60
2021/03/14 07:46:59;;;;;;;1.45;1.35;;;;;;;4.30;74.97;96341.50;4969103;28;20050;-59
2021/03/14 07:49:26;;;;;;;0.98;0.82;;;;;;;4.70;73.36;96351.81;4984637;28;20145;-61
2021/03/14 07:51:55;;;;;;;1.40;0.80;;;;;;;4.33;72.75;96348.22;4995810;28;20136;-61
2021/03/14 07:54:32;;;;;;;3.28;1.02;;;;;;;4.33;72.86;96343.56;4996345;28;20044;-63
2021/03/14 07:57:00;;;;;;;2.55;0.70;;;;;;;4.26;72.30;96343.31;5003405;28;20475;-61
2021/03/14 07:59:30;;;;;;;1.50;0.90;;;;;;;4.66;71.84;96356.28;4997546;28;20892;-61
2021/03/14 08:02:20;;;;;;;2.15;0.90;;;;;;;4.93;70.50;96359.50;5003712;28;20498;-61
2021/03/14 08:04:49;;;;;;;2.13;0.70;;;;;;;5.37;68.41;96367.88;4975633;28;20045;-60
2021/03/14 08:07:16;;;;;;;0.68;0.68;;;;;;;6.54;66.06;96370.88;4992433;28;20467;-60
2021/03/14 08:09:50;;;;;;;4.43;1.27;;;;;;;5.91;65.67;96353.19;5003157;28;20066;-60
2021/03/14 08:12:27;;;;;;;1.75;0.88;;;;;;;5.66;66.53;96345.09;4996331;28;20136;-60
2021/03/14 08:14:55;;;;;;;3.80;1.38;;;;;;;6.55;64.78;96353.38;4984552;28;20051;-60
2021/03/14 08:17:23;;;;;;;3.70;0.95;;;;;;;6.37;62.93;96350.19;4994957;28;20483;-61
2021/03/14 08:19:50;;;;;;;3.35;0.70;;;;;;;5.82;64.45;96360.69;4992225;28;20031;-60
2021/03/14 08:22:36;;;;;;;2.97;1.00;;;;;;;6.24;63.91;96369.28;4997625;28;20072;-60
2021/03/14 08:25:17;;;;;;;7.13;1.02;;;;;;;6.50;62.77;96368.06;5001359;28;20479;-59
2021/03/14 08:27:42;;;;;;;3.05;0.70;;;;;;;7.18;59.46;96367.03;5002954;28;20038;-61
2021/03/14 08:30:09;;;;;;;0.93;0.75;;;;;;;6.44;61.88;96356.63;4990633;28;20042;-61
2021/03/14 08:32:34;;;;;;;1.70;0.50;;;;;;;6.45;62.67;96360.94;4992641;28;20499;-63
2021/03/14 08:34:59;;;;;;;1.33;0.70;;;;;;;6.57;62.84;96365.53;4983454;28;20046;-62
2021/03/14 08:37:27;;;;;;;2.28;0.75;;;;;;;6.01;63.73;96362.81;4974807;28;20049;-61
2021/03/14 08:40:00;;;;;;;1.38;0.73;;;;;;;5.88;64.81;96364.75;4990095;28;20041;-60
2021/03/14 08:42:48;;;;;;;1.92;0.82;;;;;;;4.82;67.85;96363.78;4992172;28;20052;-61
2021/03/14 08:45:26;;;;;;;3.40;0.80;;;;;;;5.39;66.68;96378.41;4991620;28;20177;-62
2021/03/14 08:47:53;;;;;;;1.60;1.02;;;;;;;5.21;68.15;96370.50;4985600;28;20508;-61
2021/03/14 08:50:19;;;;;;;3.80;1.00;;;;;;;4.94;69.02;96386.31;4989149;28;20129;-60
2021/03/14 08:52:45;;;;;;;1.35;0.95;;;;;;;4.44;71.23;96378.41;5003657;28;20450;-60
2021/03/14 08:55:12;;;;;;;5.35;1.67;;;;;;;4.14;72.03;96389.34;4998023;28;20042;-59
2021/03/14 08:57:37;;;;;;;3.83;0.85;;;;;;;3.97;74.61;96387.59;5003048;28;20099;-60
2021/03/14 09:00:05;;;;;;;3.58;0.63;;;;;;;3.83;73.37;96374.31;4973680;28;20054;-61
2021/03/14 09:02:33;;;;;;;1.92;1.05;;;;;;;4.20;73.44;96396.97;4993663;28;20044;-62
2021/03/14 09:05:16;;;;;;;1.23;0.80;;;;;;;4.41;71.65;96387.97;5002246;28;20096;-61
2021/03/14 09:07:42;;;;;;;2.42;0.95;;;;;;;4.46;70.84;96376.94;5007489;28;20034;-62
2021/03/14 09:10:14;;;;;;;2.42;1.10;;;;;;;4.21;71.64;96398.56;5004389;28;20048;-61
2021/03/14 09:12:41;;;;;;;1.30;0.90;;;;;;;4.75;70.26;96391.47;4995789;28;20053;-59
2021/03/14 09:15:08;;;;;;;1.90;1.13;;;;;;;4.50;68.91;96390.63;4988663;28;20900;-60
2021/03/14 09:17:41;;;;;;;5.15;1.08;;;;;;;4.52;68.02;96378.31;4984746;28;20046;-62
2021/03/14 09:20:08;;;;;;;1.02;0.82;;;;;;;4.88;67.49;96376.00;4996853;28;20042;-60
2021/03/14 09:22:36;;;;;;;2.10;0.90;;;;;;;5.50;65.29;96372.16;5001006;28;20468;-60
2021/03/14 09:25:06;;;;;;;3.15;0.82;;;;;;;5.88;62.40;96378.34;5000797;28;20430;-61
2021/03/14 09:27:35;;;;;;;2.05;0.90;;;;;;;5.57;63.19;96384.41;4993318;28;20050;-61
2021/03/14 09:30:19;;;;;;;1.42;0.85;;;;;;;5.42;64.24;96375.81;4988999;28;20104;-61
2021/03/14 09:32:52;;;;;;;1.75;0.70;;;;;;;6.42;61.42;96388.81;4990269;28;20046;-61
2021/03/14 09:35:27;;;;;;;2.13;0.75;;;;;;;6.53;61.51;96386.38;4995150;28;20049;-60
2021/03/14 09:37:52;;;;;;;1.60;0.70;;;;;;;6.29;62.05;96381.84;5001407;28;20368;-61
2021/03/14 09:40:20;;;;;;;2.08;0.80;;;;;;;7.23;59.45;96385.84;4996270;28;20131;-61
2021/03/14 09:42:49;;;;;;;2.30;1.00;;;;;;;8.22;57.20;96374.78;4992734;28;20514;-61
2021/03/14 09:45:17;;;;;;;2.33;0.68;;;;;;;7.55;58.04;96385.03;4981835;28;20042;-59
2021/03/14 09:47:59;;;;;;;4.68;0.85;;;;;;;7.87;57.26;96363.13;5003178;28;20049;-61
2021/03/14 09:50:25;;;;;;;1.33;0.60;;;;;;;8.45;55.77;96368.63;5007570;28;20095;-61
2021/03/14 09:52:51;;;;;;;1.60;0.68;;;;;;;8.78;52.49;96364.53;4979329;28;20521;-60
2021/03/14 09:55:29;;;;;;;1.35;0.55;;;;;;;8.42;52.74;96356.47;4982745;28;20136;-60
2021/03/14 09:57:56;;;;;;;3.25;0.70;;;;;;;7.78;54.12;96376.97;4988976;28;20046;-61
2021/03/14 10:00:23;;;;;;;3.72;0.82;;;;;;;8.03;52.74;96381.03;4996472;28;20076;-61
2021/03/14 10:02:49;;;;;;;4.40;0.70;;;;;;;7.69;52.34;96377.16;5001173;28;20554;-61
2021/03/14 10:05:16;;;;;;;3.38;0.80;;;;;;;7.66;52.35;96375.94;4992686;28;20038;-61
2021/03/14 10:07:41;;;;;;;2.88;0.73;;;;;;;8.04;50.88;96368.94;4988411;28;20041;-62
2021/03/14 10:10:13;;;;;;;3.88;1.13;;;;;;;8.08;50.67;96363.56;4987965;28;20072;-61
2021/03/14 10:12:40;;;;;;;2.03;0.60;;;;;;;7.95;50.51;96382.00;5000257;28;20038;-62
2021/03/14 10:15:06;;;;;;;2.45;0.70;;;;;;;7.69;50.77;96379.09;4995507;28;20042;-60
2021/03/14 10:17:33;;;;;;;2.80;0.70;;;;;;;6.79;52.97;96375.03;5000915;28;20057;-61
2021/03/14 10:20:00;;;;;;;1.40;1.00;;;;;;;6.77;53.96;96373.78;4999392;28;20038;-61
2021/03/14 10:22:32;;;;;;;1.63;0.80;;;;;;;6.37;53.95;96383.63;4982529;28;20146;-60
2021/03/14 10:24:57;;;;;;;4.63;1.10;;;;;;;6.53;54.51;96380.16;4996777;28;20061;-60
2021/03/14 10:27:23;;;;;;;2.45;0.60;;;;;;;6.77;53.85;96385.47;4994490;28;20050;-62
2021/03/14 10:29:57;;;;;;;8.25;3.38;;;;;;;7.23;53.00;96374.16;4994149;28;20076;-62
2021/03/14 10:32:25;;;;;;;2.35;0.75;;;;;;;8.13;49.79;96370.69;4993341;28;20490;-61
2021/03/14 10:34:52;;;;;;;1.85;0.85;;;;;;;8.46;49.40;96372.13;4997843;28;20038;-61
2021/03/14 10:37:32;;;;;;;4.82;0.70;;;;;;;8.74;48.88;96367.22;4969776;28;20066;-62
2021/03/14 10:40:00;;;;;;;1.70;0.70;;;;;;;8.99;46.91;96366.88;5002962;28;20756;-61
2021/03/14 10:42:33;;;;;;;1.60;0.60;;;;;;;8.91;47.21;96381.53;4991929;28;20049;-61
2021/03/14 10:45:12;;;;;;;2.55;0.50;;;;;;;8.80;47.49;96387.63;5000668;28;20137;-60
2021/03/14 10:47:38;;;;;;;1.83;0.50;;;;;;;8.81;47.64;96377.47;4999752;28;20053;-62
2021/03/14 10:50:06;;;;;;;2.88;0.65;;;;;;;8.17;47.98;96391.41;4990349;28;20050;-61
2021/03/14 10:52:32;;;;;;;1.75;0.52;;;;;;;8.76;47.48;96394.16;4988732;28;20050;-61
2021/03/14 10:54:57;;;;;;;3.50;1.70;;;;;;;8.27;48.09;96394.75;4995664;28;20060;-61
2021/03/14 10:57:23;;;;;;;2.58;0.90;;;;;;;8.73;47.76;96384.75;4986736;28;20419;-60
2021/03/14 10:59:49;;;;;;;1.67;0.63;;;;;;;9.24;47.84;96385.59;5000351;28;20510;-61
2021/03/14 11:02:19;;;;;;;2.83;0.90;;;;;;;8.75;49.14;96396.09;4980408;28;20046;-59
2021/03/14 11:04:55;;;;;;;;;;;;;;;8.53;48.94;96381.25;4987468;28;20058;-61
2021/03/14 11:07:38;;;;;;;4.30;0.75;;;;;;;7.74;48.17;96378.81;4995113;28;19941;-61
2021/03/14 11:10:16;;;;;;;4.32;0.90;;;;;;;7.71;48.76;96390.44;4993694;28;20038;-59
2021/03/14 11:12:43;;;;;;;6.13;1.02;;;;;;;7.90;48.72;96373.31;4988518;28;20550;-61
2021/03/14 11:15:21;;;;;;;1.58;0.70;;;;;;;8.28;48.93;96393.59;4983508;28;20046;-60
2021/03/14 11:17:47;;;;;;;1.92;0.90;;;;;;;7.89;49.32;96390.84;4991944;28;20076;-61
2021/03/14 11:20:13;;;;;;;1.30;0.82;;;;;;;7.37;51.97;96392.78;4995296;28;20088;-61
2021/03/14 11:22:38;;;;;;;3.08;0.77;;;;;;;7.02;52.25;96385.31;5000274;28;20049;-62
2021/03/14 11:25:05;;;;;;;5.32;1.17;;;;;;;6.69;54.04;96395.38;4988406;28;20038;-60
2021/03/14 11:27:31;;;;;;;0.82;0.80;;;;;;;6.92;54.81;96402.97;4987765;28;20150;-62
2021/03/14 11:29:56;;;;;;;3.67;1.08;;;;;;;7.08;55.31;96392.88;4999121;28;20121;-62
2021/03/14 11:32:22;;;;;;;2.58;1.00;;;;;;;7.66;56.25;96395.00;4994538;28;20053;-60
2021/03/14 11:34:48;;;;;;;1.08;0.80;;;;;;;8.23;54.10;96386.50;4999895;28;20429;-62
2021/03/14 11:37:14;;;;;;;2.47;0.80;;;;;;;8.28;53.71;96378.00;4995437;28;20099;-61
2021/03/14 11:39:40;;;;;;;3.38;1.50;;;;;;;8.32;52.24;96378.88;4997213;28;20042;-61
2021/03/14 11:42:06;;;;;;;2.65;0.80;;;;;;;7.85;53.85;96390.78;4983477;28;20721;-63
2021/03/14 11:44:31;;;;;;;1.55;0.60;;;;;;;7.90;53.45;96386.97;4996033;28;20528;-62
2021/03/14 11:46:56;;;;;;;2.17;0.85;;;;;;;8.36;53.64;96392.59;5000181;28;20054;-62